Time;durP1;ratioP1;P1;durP2;ratioP2;P2;SDS_P1;SDS_P2;PMS_P1;PMS_P2;Temp;Humidity;BMP_temperature;BMP_pressure;BME280_temperature;BME280_humidity;BME280_pressure;Samples;Min_cycle;Max_cycle;Signal;HPM_P1;HPM_P2
2022/09/21 00:01:58;;;;;;;2.80;2.03;;;;;;;9.17;83.26;101781.06;5072967;28;20208;-83
2022/09/21 00:04:24;;;;;;;2.93;1.90;;;;;;;9.11;82.90;101785.75;5075698;28;20212;-83
2022/09/21 00:06:51;;;;;;;4.30;2.07;;;;;;;9.06;83.09;101785.94;5080892;28;20599;-83
2022/09/21 00:09:17;;;;;;;4.17;1.90;;;;;;;9.00;83.22;101787.03;5080094;28;20205;-83
2022/09/21 00:11:44;;;;;;;5.07;2.20;;;;;;;8.96;83.97;101789.84;5071859;28;20196;-83
2022/09/21 00:14:13;;;;;;;3.47;2.10;;;;;;;8.93;83.91;101798.84;5072552;28;20228;-83
2022/09/21 00:16:41;;;;;;;6.17;2.10;;;;;;;8.90;83.76;101790.13;5074794;28;20215;-83
2022/09/21 00:19:08;;;;;;;5.10;1.90;;;;;;;8.86;83.61;101792.00;5076736;28;20237;-83
2022/09/21 00:21:36;;;;;;;3.50;2.07;;;;;;;8.83;83.94;101789.47;5086676;28;20204;-82
2022/09/21 00:24:03;;;;;;;2.67;1.90;;;;;;;8.78;83.74;101790.59;5080372;28;20224;-82
2022/09/21 00:26:30;;;;;;;3.27;2.00;;;;;;;8.71;83.93;101795.25;5080701;28;20201;-82
2022/09/21 00:28:59;;;;;;;2.80;1.70;;;;;;;8.66;84.55;101789.22;5083815;28;20205;-82
2022/09/21 00:31:27;;;;;;;3.33;2.13;;;;;;;8.61;84.84;101794.72;5078166;28;20204;-82
2022/09/21 00:33:55;;;;;;;3.60;2.47;;;;;;;8.58;84.27;101797.50;5079628;28;20726;-82
2022/09/21 00:36:24;;;;;;;3.63;2.30;;;;;;;8.57;84.90;101797.56;5086794;28;20662;-83
2022/09/21 00:38:53;;;;;;;4.90;1.93;;;;;;;8.56;84.93;101799.34;5083007;28;20208;-83
2022/09/21 00:41:20;;;;;;;3.03;2.30;;;;;;;8.54;85.42;101798.53;5085027;28;20217;-83
2022/09/21 00:44:08;;;;;;;6.60;2.20;;;;;;;8.54;84.60;101805.63;5076720;28;20225;-82
2022/09/21 00:46:38;;;;;;;4.63;1.87;;;;;;;8.51;85.07;101801.28;5079156;28;20208;-83
2022/09/21 00:49:08;;;;;;;9.00;2.23;;;;;;;8.46;84.79;101797.94;5078576;28;20847;-82
2022/09/21 00:51:35;;;;;;;3.53;2.27;;;;;;;8.39;84.76;101799.09;5072985;28;20205;-82
2022/09/21 00:54:06;;;;;;;5.27;2.27;;;;;;;8.37;84.66;101797.41;5083570;28;20219;-82
2022/09/21 00:56:36;;;;;;;4.53;2.10;;;;;;;8.33;85.52;101800.16;5067745;28;20202;-82
2022/09/21 00:59:03;;;;;;;4.17;2.17;;;;;;;8.31;85.92;101803.75;5071345;28;20201;-82
2022/09/21 01:01:30;;;;;;;4.70;2.20;;;;;;;8.30;85.44;101805.56;5072411;28;20227;-82
2022/09/21 01:03:57;;;;;;;7.57;2.70;;;;;;;8.28;85.96;101810.03;5077995;28;20220;-82
2022/09/21 01:06:25;;;;;;;3.60;2.23;;;;;;;8.27;86.11;101816.28;5072002;28;20209;-82
2022/09/21 01:08:56;;;;;;;3.60;2.40;;;;;;;8.26;85.49;101816.31;5071476;28;20197;-82
2022/09/21 01:11:34;;;;;;;5.73;2.10;;;;;;;8.22;85.74;101812.94;5069176;28;20258;-82
2022/09/21 01:14:16;;;;;;;3.10;2.17;;;;;;;8.21;86.19;101818.28;5077377;28;20757;-82
2022/09/21 01:16:48;;;;;;;2.70;2.30;;;;;;;8.18;86.23;101816.59;5074680;28;20215;-82
2022/09/21 01:19:33;;;;;;;6.60;2.20;;;;;;;8.14;85.77;101814.97;5077046;28;20452;-82
2022/09/21 01:22:10;;;;;;;2.73;2.00;;;;;;;8.09;86.02;101816.03;5072790;28;20197;-82
2022/09/21 01:24:50;;;;;;;2.67;1.97;;;;;;;8.04;85.80;101824.19;5080976;28;20201;-83
2022/09/21 01:27:33;;;;;;;3.57;2.30;;;;;;;8.02;85.71;101815.41;5069042;28;20234;-83
2022/09/21 01:30:04;;;;;;;3.37;2.10;;;;;;;8.00;86.83;101817.25;5076053;28;20196;-83
2022/09/21 01:32:35;;;;;;;3.67;2.27;;;;;;;7.96;86.18;101818.25;5070565;28;20225;-83
2022/09/21 01:35:05;;;;;;;3.97;2.47;;;;;;;7.96;86.75;101823.56;5079328;28;20228;-83
2022/09/21 01:37:37;;;;;;;2.83;2.20;;;;;;;7.94;87.12;101826.25;5072101;28;20662;-82
2022/09/21 01:40:10;;;;;;;4.80;2.07;;;;;;;7.94;86.80;101822.75;5076238;28;20212;-83
2022/09/21 01:42:40;;;;;;;5.00;2.20;;;;;;;7.92;86.93;101824.56;5077277;28;20225;-82
2022/09/21 01:45:11;;;;;;;3.13;2.10;;;;;;;7.91;86.90;101822.84;5081346;28;20221;-82
2022/09/21 01:47:42;;;;;;;3.07;2.20;;;;;;;7.89;86.40;101829.97;5075470;28;20635;-83
2022/09/21 01:50:11;;;;;;;3.90;2.03;;;;;;;7.88;86.44;101830.94;5075765;28;20212;-83
2022/09/21 01:52:42;;;;;;;2.67;2.20;;;;;;;7.87;86.86;101837.16;5077708;28;20232;-83
2022/09/21 01:55:13;;;;;;;3.77;2.47;;;;;;;7.85;86.63;101828.38;5095887;28;20549;-83
2022/09/21 01:57:46;;;;;;;2.13;1.77;;;;;;;7.82;86.94;101831.13;5096005;28;20188;-82
2022/09/21 02:00:15;;;;;;;3.40;1.77;;;;;;;7.79;86.06;101824.13;5075564;28;20243;-82
2022/09/21 02:02:49;;;;;;;1.73;1.43;;;;;;;7.72;85.90;101827.03;5075470;28;20274;-82
2022/09/21 02:05:18;;;;;;;1.50;1.10;;;;;;;7.63;85.34;101831.72;5055585;28;20201;-82
2022/09/21 02:07:46;;;;;;;1.43;0.60;;;;;;;7.58;85.50;101832.78;5079511;28;20204;-82
2022/09/21 02:10:18;;;;;;;1.20;0.73;;;;;;;7.49;85.53;101833.09;5088535;28;20200;-82
2022/09/21 02:12:44;;;;;;;1.40;0.90;;;;;;;7.43;85.03;101834.13;5088850;28;20220;-82
2022/09/21 02:15:11;;;;;;;1.67;1.10;;;;;;;7.39;85.26;101839.56;5080311;28;20204;-82
2022/09/21 02:17:47;;;;;;;1.50;1.33;;;;;;;7.35;85.81;101846.75;5074920;28;20216;-82
2022/09/21 02:20:20;;;;;;;3.93;1.23;;;;;;;7.32;85.70;101833.63;5075257;28;20568;-82
2022/09/21 02:23:03;;;;;;;4.07;2.00;;;;;;;7.30;86.18;101841.63;5091720;28;20709;-82
2022/09/21 02:25:40;;;;;;;4.07;2.20;;;;;;;7.26;86.06;101839.97;5076141;28;20193;-82
2022/09/21 02:28:10;;;;;;;4.70;2.30;;;;;;;7.28;86.30;101839.91;5083601;28;20203;-82
2022/09/21 02:30:39;;;;;;;3.93;2.60;;;;;;;7.24;85.86;101832.97;5074863;28;20207;-82
2022/09/21 02:33:13;;;;;;;4.33;2.73;;;;;;;7.24;86.99;101831.19;5084095;28;20217;-83
2022/09/21 02:35:44;;;;;;;2.90;2.40;;;;;;;7.22;86.80;101830.38;5084852;28;20201;-82
2022/09/21 02:38:18;;;;;;;3.13;2.53;;;;;;;7.18;87.12;101831.38;5074948;28;20222;-82
2022/09/21 02:40:52;;;;;;;3.90;2.67;;;;;;;7.17;86.73;101834.94;5075010;28;20220;-83
2022/09/21 02:43:23;;;;;;;6.40;3.10;;;;;;;7.13;87.17;101835.09;5074670;28;20231;-82
2022/09/21 02:45:53;;;;;;;3.40;2.70;;;;;;;7.12;87.74;101836.88;5074426;28;20186;-82
2022/09/21 02:48:27;;;;;;;5.80;3.00;;;;;;;7.11;87.68;101834.25;5074829;28;20208;-82
2022/09/21 02:50:57;;;;;;;3.07;2.70;;;;;;;7.10;87.53;101833.41;5053760;28;20193;-82
2022/09/21 02:53:27;;;;;;;3.53;2.87;;;;;;;7.10;87.60;101832.53;5080351;28;20231;-82
2022/09/21 02:55:56;;;;;;;3.77;2.70;;;;;;;7.08;87.33;101835.22;5074577;28;20212;-82
2022/09/21 02:58:26;;;;;;;5.47;2.80;;;;;;;7.07;87.79;101836.13;5074663;28;20650;-82
2022/09/21 03:00:55;;;;;;;3.30;2.50;;;;;;;7.04;87.42;101827.41;5074303;28;20606;-82
2022/09/21 03:03:25;;;;;;;5.30;2.53;;;;;;;7.03;87.93;101833.63;5074085;28;20703;-82
2022/09/21 03:05:53;;;;;;;2.93;2.60;;;;;;;7.00;87.45;101836.34;5074336;28;20244;-83
2022/09/21 03:08:21;;;;;;;4.57;2.60;;;;;;;7.01;87.55;101838.94;5075069;28;20223;-82
2022/09/21 03:10:48;;;;;;;3.23;2.57;;;;;;;7.00;87.90;101833.69;5078396;28;20192;-82
2022/09/21 03:13:15;;;;;;;4.27;2.27;;;;;;;6.97;88.38;101832.91;5094921;28;20224;-83
2022/09/21 03:15:42;;;;;;;6.93;3.20;;;;;;;6.97;88.65;101835.56;5094773;28;20200;-82
2022/09/21 03:18:10;;;;;;;3.77;2.80;;;;;;;6.97;88.05;101839.97;5087435;28;20209;-82
2022/09/21 03:20:39;;;;;;;2.83;2.57;;;;;;;6.96;87.91;101840.91;5074056;28;20234;-82
2022/09/21 03:23:06;;;;;;;4.03;2.63;;;;;;;6.95;88.75;101845.31;5074071;28;20225;-82
2022/09/21 03:25:33;;;;;;;4.20;3.10;;;;;;;6.93;88.03;101844.50;5081794;28;20565;-82
2022/09/21 03:28:00;;;;;;;7.33;3.23;;;;;;;6.91;88.51;101843.66;5073216;28;20216;-82
2022/09/21 03:30:28;;;;;;;5.00;2.80;;;;;;;6.90;88.05;101847.22;5073758;28;20205;-82
2022/09/21 03:32:55;;;;;;;4.67;2.97;;;;;;;6.88;88.05;101841.09;5081722;28;20228;-82
2022/09/21 03:35:24;;;;;;;7.57;3.43;;;;;;;6.86;89.00;101850.88;5073748;28;20660;-82
2022/09/21 03:37:53;;;;;;;3.37;2.40;;;;;;;6.84;88.22;101846.53;5070937;28;20205;-82
2022/09/21 03:40:20;;;;;;;4.77;2.57;;;;;;;6.80;88.00;101848.41;5073854;28;20582;-82
2022/09/21 03:42:47;;;;;;;2.10;1.90;;;;;;;6.74;87.81;101845.06;5073489;28;20221;-84
2022/09/21 03:45:13;;;;;;;3.97;2.10;;;;;;;6.70;87.56;101854.00;5078356;28;20197;-83
2022/09/21 03:47:41;;;;;;;4.83;2.27;;;;;;;6.63;87.29;101851.50;5056120;28;20221;-83
2022/09/21 03:50:08;;;;;;;4.63;2.13;;;;;;;6.59;87.18;101854.31;5071153;28;20229;-83
2022/09/21 03:52:36;;;;;;;2.67;1.90;;;;;;;6.54;87.51;101856.22;5073280;28;20220;-83
2022/09/21 03:55:06;;;;;;;2.53;1.97;;;;;;;6.49;87.42;101852.81;5081815;28;20189;-83
2022/09/21 03:57:33;;;;;;;3.67;2.50;;;;;;;6.43;87.59;101851.22;5065713;28;20219;-83
2022/09/21 04:00:01;;;;;;;6.43;2.87;;;;;;;6.40;87.67;101853.94;5073011;28;20220;-82
2022/09/21 04:02:28;;;;;;;3.63;2.77;;;;;;;6.34;87.50;101854.09;5073120;28;20228;-82
2022/09/21 04:04:54;;;;;;;5.50;2.90;;;;;;;6.34;87.51;101850.59;5073219;28;20207;-83
2022/09/21 04:07:21;;;;;;;4.80;3.00;;;;;;;6.31;87.98;101856.81;5089846;28;20200;-82
2022/09/21 04:09:47;;;;;;;5.43;2.90;;;;;;;6.28;88.47;101855.13;5093254;28;20196;-82
2022/09/21 04:12:15;;;;;;;4.97;3.00;;;;;;;6.28;88.15;101857.75;5077385;28;20221;-84
2022/09/21 04:14:41;;;;;;;4.63;3.47;;;;;;;6.24;87.46;101856.13;5083585;28;20231;-84
2022/09/21 04:17:08;;;;;;;4.53;3.00;;;;;;;6.19;87.47;101860.66;5075863;28;20212;-83
2022/09/21 04:19:34;;;;;;;3.57;2.30;;;;;;;6.16;88.03;101858.09;5079699;28;20209;-83
2022/09/21 04:22:01;;;;;;;2.57;2.03;;;;;;;6.12;87.53;101860.84;5082124;28;20243;-83
2022/09/21 04:24:27;;;;;;;4.43;2.00;;;;;;;6.08;87.92;101861.88;5080115;28;20217;-83
2022/09/21 04:26:54;;;;;;;1.97;1.70;;;;;;;6.04;88.38;101866.34;5075834;28;20200;-84
2022/09/21 04:29:22;;;;;;;5.37;2.30;;;;;;;6.03;88.35;101872.56;5078030;28;20204;-82
2022/09/21 04:31:48;;;;;;;3.60;2.43;;;;;;;6.02;88.49;101867.28;5072300;28;20193;-82
2022/09/21 04:34:15;;;;;;;3.73;2.37;;;;;;;6.03;88.62;101869.03;5073041;28;20232;-82
2022/09/21 04:36:42;;;;;;;4.23;2.50;;;;;;;6.01;89.15;101874.34;5072936;28;20258;-83
2022/09/21 04:39:08;;;;;;;2.77;2.30;;;;;;;6.01;88.85;101869.06;5072676;28;20205;-82
2022/09/21 04:41:35;;;;;;;4.63;2.50;;;;;;;6.01;88.89;101866.44;5072598;28;20228;-82
2022/09/21 04:44:02;;;;;;;3.07;2.50;;;;;;;6.01;89.04;101862.91;5077724;28;20223;-82
2022/09/21 04:46:30;;;;;;;6.40;2.90;;;;;;;5.99;89.40;101867.38;5077698;28;20212;-82
2022/09/21 04:48:56;;;;;;;4.50;2.37;;;;;;;5.99;89.55;101870.88;5081813;28;20201;-82
2022/09/21 04:51:23;;;;;;;4.40;2.80;;;;;;;5.99;89.41;101870.00;5052417;28;20667;-82
2022/09/21 04:53:50;;;;;;;3.33;2.67;;;;;;;5.97;89.27;101867.41;5068830;28;20318;-82
2022/09/21 04:56:17;;;;;;;3.53;2.10;;;;;;;5.94;89.18;101867.47;5072410;28;20232;-81
2022/09/21 04:58:44;;;;;;;3.13;2.33;;;;;;;5.86;88.95;101872.06;5083412;28;20204;-82
2022/09/21 05:01:10;;;;;;;5.23;2.13;;;;;;;5.85;88.90;101883.53;5092897;28;20228;-82
2022/09/21 05:03:39;;;;;;;4.03;2.10;;;;;;;5.82;88.90;101883.63;5092884;28;20319;-82
2022/09/21 05:06:06;;;;;;;3.37;2.23;;;;;;;5.81;89.03;101887.16;5083306;28;20203;-82
2022/09/21 05:11:23;;;;;;;3.07;2.60;;;;;;;5.80;89.32;101885.41;4997586;28;20206;-82
2022/09/21 05:13:50;;;;;;;2.93;2.33;;;;;;;5.79;89.48;101887.19;5072690;28;20229;-82
2022/09/21 05:16:18;;;;;;;5.20;2.80;;;;;;;5.79;89.76;101889.84;5077117;28;20192;-82
2022/09/21 05:18:53;;;;;;;5.07;3.30;;;;;;;5.80;89.42;101888.06;5077292;28;20272;-82
2022/09/21 05:21:20;;;;;;;7.33;3.03;;;;;;;5.81;89.50;101897.72;5076925;28;20232;-82
2022/09/21 05:23:47;;;;;;;6.07;3.73;;;;;;;5.82;89.50;101892.41;5076995;28;20225;-82
2022/09/21 05:26:13;;;;;;;6.50;3.37;;;;;;;5.83;89.70;101899.44;5078278;28;20215;-82
2022/09/21 05:28:40;;;;;;;5.43;3.50;;;;;;;5.85;89.63;101896.75;5077555;28;20234;-82
2022/09/21 05:31:25;;;;;;;5.10;3.17;;;;;;;5.84;89.87;101897.66;5095958;28;20202;-82
2022/09/21 05:33:57;;;;;;;4.63;3.27;;;;;;;5.87;89.94;101898.47;5095413;28;20267;-81
2022/09/21 05:36:37;;;;;;;4.70;3.53;;;;;;;5.93;89.86;101897.47;5081481;28;20740;-82
2022/09/21 05:39:04;;;;;;;6.53;4.30;;;;;;;5.96;90.24;101896.53;5075335;28;20846;-82
2022/09/21 05:41:31;;;;;;;5.67;3.70;;;;;;;6.00;90.42;101898.19;5072721;28;20308;-82
2022/09/21 05:43:58;;;;;;;4.80;3.33;;;;;;;6.03;90.59;101901.63;5068269;28;20247;-82
2022/09/21 05:46:37;;;;;;;4.93;3.63;;;;;;;6.04;90.24;101908.66;5069589;28;20623;-82
2022/09/21 05:49:14;;;;;;;3.47;3.17;;;;;;;6.00;89.80;101906.13;5070252;28;20241;-82
2022/09/21 05:51:52;;;;;;;4.67;3.40;;;;;;;5.96;90.14;101913.25;5072692;28;20558;-81
2022/09/21 05:54:24;;;;;;;4.57;3.27;;;;;;;5.93;89.81;101906.25;5074265;28;20212;-82
2022/09/21 05:57:04;;;;;;;5.43;3.07;;;;;;;5.93;89.59;101918.63;5069590;28;20615;-83
2022/09/21 05:59:45;;;;;;;4.63;3.37;;;;;;;5.92;89.41;101919.53;5066295;28;20205;-82
2022/09/21 06:02:22;;;;;;;3.90;3.50;;;;;;;5.92;89.68;101916.88;5069491;28;20620;-81
2022/09/21 06:04:53;;;;;;;4.53;3.50;;;;;;;5.92;89.67;101923.03;5077473;28;20188;-82
2022/09/21 06:07:19;;;;;;;4.77;3.33;;;;;;;5.92;89.89;101922.16;5073990;28;20292;-81
2022/09/21 06:09:46;;;;;;;5.33;4.10;;;;;;;5.95;89.63;101924.75;5082408;28;20205;-82
2022/09/21 06:12:12;;;;;;;12.60;7.83;;;;;;;5.99;90.02;101926.41;5070790;28;20237;-82
2022/09/21 06:14:38;;;;;;;15.57;9.50;;;;;;;6.03;90.20;101928.09;5087598;28;20861;-83
2022/09/21 06:17:05;;;;;;;19.93;11.37;;;;;;;6.09;90.43;101945.59;5082355;28;20201;-83
2022/09/21 06:19:31;;;;;;;9.93;8.03;;;;;;;6.14;90.54;101954.25;5086569;28;20200;-82
2022/09/21 06:21:59;;;;;;;7.67;5.73;;;;;;;6.19;90.66;101941.78;5071828;28;20221;-83
2022/09/21 06:24:26;;;;;;;7.00;4.60;;;;;;;6.26;90.89;101948.69;5085100;28;20208;-83
2022/09/21 06:26:52;;;;;;;7.77;4.97;;;;;;;6.31;91.20;101946.78;5073108;28;20307;-83
2022/09/21 06:29:22;;;;;;;6.23;4.73;;;;;;;6.38;91.67;101947.50;5073878;28;20208;-83
2022/09/21 06:31:49;;;;;;;7.80;4.23;;;;;;;6.44;91.47;101947.34;5072992;28;20197;-82
2022/09/21 06:34:15;;;;;;;8.73;4.80;;;;;;;6.49;92.07;101953.38;5077460;28;20231;-82
2022/09/21 06:36:42;;;;;;;9.13;6.10;;;;;;;6.55;92.12;101947.94;5074277;28;20224;-82
2022/09/21 06:39:09;;;;;;;6.57;4.70;;;;;;;6.61;92.39;101945.13;5077067;28;20850;-83
2022/09/21 06:41:36;;;;;;;7.40;4.97;;;;;;;6.67;92.38;101942.31;5069870;28;20220;-82
2022/09/21 06:44:03;;;;;;;5.53;4.83;;;;;;;6.73;92.57;101949.22;5080405;28;20226;-83
2022/09/21 06:46:29;;;;;;;7.13;4.37;;;;;;;6.79;92.88;101944.66;5075266;28;20789;-83
2022/09/21 06:48:56;;;;;;;6.70;4.73;;;;;;;6.85;92.88;101939.16;5077503;28;20216;-84
2022/09/21 06:51:22;;;;;;;8.43;5.63;;;;;;;6.93;93.01;101941.63;5075131;28;20205;-83
2022/09/21 06:53:49;;;;;;;7.20;5.00;;;;;;;7.00;92.99;101952.88;5085907;28;20224;-83
2022/09/21 06:56:17;;;;;;;6.40;4.67;;;;;;;7.08;93.45;101956.22;5085200;28;20201;-83
2022/09/21 06:58:46;;;;;;;7.73;5.23;;;;;;;7.15;93.05;101955.13;5073499;28;20212;-82
2022/09/21 07:01:14;;;;;;;9.03;5.00;;;;;;;7.22;93.61;101954.03;5081439;28;20225;-82
2022/09/21 07:03:42;;;;;;;7.70;5.40;;;;;;;7.31;93.83;101961.72;5069800;28;20230;-83
2022/09/21 07:06:10;;;;;;;8.40;6.50;;;;;;;7.38;93.80;101955.31;5072991;28;20687;-82
2022/09/21 07:08:38;;;;;;;8.47;6.03;;;;;;;7.48;94.54;101950.63;5076224;28;20232;-82
2022/09/21 07:11:06;;;;;;;8.47;6.53;;;;;;;7.57;95.03;101963.59;5082198;28;20204;-82
2022/09/21 07:13:34;;;;;;;8.97;5.20;;;;;;;7.69;94.94;101959.72;5074290;28;20228;-83
2022/09/21 07:16:04;;;;;;;7.47;5.43;;;;;;;7.79;94.84;101955.88;5071775;28;20571;-82
2022/09/21 07:18:31;;;;;;;21.57;7.70;;;;;;;7.91;94.92;101959.00;5074766;28;20208;-83
2022/09/21 07:20:57;;;;;;;15.00;7.13;;;;;;;8.04;95.98;101961.28;5071805;28;20197;-82
2022/09/21 07:23:24;;;;;;;13.50;6.50;;;;;;;8.15;95.90;101956.47;5076854;28;20228;-82
2022/09/21 07:25:51;;;;;;;12.97;5.77;;;;;;;8.31;96.00;101958.56;5075102;28;20571;-83
2022/09/21 07:28:18;;;;;;;7.60;5.53;;;;;;;8.46;95.86;101959.00;5060357;28;20373;-82
2022/09/21 07:30:46;;;;;;;7.20;5.17;;;;;;;8.62;96.31;101960.22;5076414;28;20224;-83
2022/09/21 07:33:13;;;;;;;7.23;5.50;;;;;;;8.77;97.16;101954.41;5069633;28;20232;-83
2022/09/21 07:35:39;;;;;;;11.43;5.80;;;;;;;8.94;97.49;101952.03;5073691;28;20208;-83
2022/09/21 07:38:07;;;;;;;9.37;5.80;;;;;;;9.11;97.68;101956.72;5061814;28;20206;-83
2022/09/21 07:40:34;;;;;;;10.10;6.00;;;;;;;9.30;97.72;101956.91;5064283;28;20206;-82
2022/09/21 07:43:02;;;;;;;8.67;5.23;;;;;;;9.47;97.92;101957.16;5065454;28;20230;-83
2022/09/21 07:45:28;;;;;;;7.27;5.87;;;;;;;9.67;97.39;101962.53;5066473;28;20205;-82
2022/09/21 07:48:02;;;;;;;8.77;5.53;;;;;;;9.89;97.21;101961.72;5067878;28;20422;-82
2022/09/21 07:50:28;;;;;;;6.37;4.10;;;;;;;10.05;96.75;101952.19;5061995;28;20610;-82
2022/09/21 07:52:55;;;;;;;6.33;4.50;;;;;;;10.22;96.29;101957.72;5070411;28;20247;-83
2022/09/21 07:55:21;;;;;;;5.57;3.90;;;;;;;10.37;95.15;101958.91;5058792;28;20216;-83
2022/09/21 08:00:48;;;;;;;9.60;6.63;;;;;;;10.67;93.25;101965.59;5003554;28;20222;-83
2022/09/21 08:03:16;;;;;;;7.50;4.60;;;;;;;10.83;92.20;101963.13;5001283;28;20265;-83
2022/09/21 08:05:42;;;;;;;7.70;4.40;;;;;;;10.98;91.30;101950.91;5025960;28;20582;-82
2022/09/21 08:08:09;;;;;;;8.97;4.00;;;;;;;11.12;89.77;101959.16;5062575;28;20673;-83
2022/09/21 08:10:36;;;;;;;4.93;3.70;;;;;;;11.26;88.36;101955.91;5067181;28;20210;-81
2022/09/21 08:13:02;;;;;;;9.23;3.60;;;;;;;11.38;87.31;101961.53;5061149;28;20218;-81
2022/09/21 08:15:29;;;;;;;4.53;3.20;;;;;;;11.54;86.07;101963.47;5060001;28;20219;-82
2022/09/21 08:17:57;;;;;;;5.23;2.33;;;;;;;11.66;84.58;101963.75;5066494;28;20212;-82
2022/09/21 08:20:25;;;;;;;5.27;2.93;;;;;;;11.80;83.64;101965.84;5063055;28;20206;-82
2022/09/21 08:22:52;;;;;;;7.27;3.17;;;;;;;11.96;83.02;101971.31;5066825;28;20240;-81
2022/09/21 08:25:19;;;;;;;6.43;2.73;;;;;;;12.09;81.48;101956.41;5058963;28;20292;-82
2022/09/21 08:27:48;;;;;;;5.37;2.60;;;;;;;12.18;80.37;101964.81;5066398;28;20206;-81
2022/09/21 08:30:14;;;;;;;6.87;2.90;;;;;;;12.31;79.15;101964.25;5063095;28;20204;-82
2022/09/21 08:32:41;;;;;;;5.23;2.33;;;;;;;12.41;77.91;101957.47;5061064;28;20229;-82
2022/09/21 08:35:08;;;;;;;9.00;2.70;;;;;;;12.52;77.00;101961.38;5060940;28;20208;-82
2022/09/21 08:37:37;;;;;;;5.50;2.53;;;;;;;12.63;75.85;101960.81;5065882;28;20266;-81
2022/09/21 08:40:04;;;;;;;7.20;3.60;;;;;;;12.74;75.66;101960.25;5065278;28;20209;-82
2022/09/21 08:42:41;;;;;;;6.73;3.30;;;;;;;12.88;75.59;101959.56;5064571;28;20314;-81
2022/09/21 08:45:15;;;;;;;9.07;2.57;;;;;;;12.99;74.59;101955.34;5061687;28;20207;-81
2022/09/21 08:47:45;;;;;;;6.30;3.63;;;;;;;13.11;74.47;101961.84;5071075;28;20242;-81
2022/09/21 08:50:30;;;;;;;6.30;3.37;;;;;;;13.25;74.15;101963.84;5057537;28;20250;-81
2022/09/21 08:53:04;;;;;;;7.50;2.90;;;;;;;13.32;72.98;101958.06;5063237;28;20212;-81
2022/09/21 08:55:30;;;;;;;5.80;3.57;;;;;;;13.43;72.68;101966.41;5062792;28;20197;-81
2022/09/21 08:57:59;;;;;;;6.17;3.80;;;;;;;13.53;72.75;101961.41;5061766;28;20246;-81
2022/09/21 09:00:25;;;;;;;8.87;3.57;;;;;;;13.64;72.42;101966.16;5066032;28;20209;-81
2022/09/21 09:03:12;;;;;;;7.37;3.07;;;;;;;13.75;72.42;101956.59;5065306;28;20227;-81
2022/09/21 09:05:48;;;;;;;3.67;1.90;;;;;;;13.87;71.73;101968.41;5069057;28;20203;-82
2022/09/21 09:08:44;;;;;;;6.80;2.87;;;;;;;13.95;70.71;101968.88;5067187;28;20582;-81
2022/09/21 09:11:24;;;;;;;6.90;3.07;;;;;;;14.04;69.62;101968.31;5044997;28;20250;-82
2022/09/21 09:14:08;;;;;;;5.10;2.70;;;;;;;14.14;69.37;101974.03;5064569;28;20231;-82
2022/09/21 09:16:43;;;;;;;4.23;2.60;;;;;;;14.22;68.68;101969.97;5059445;28;20643;-82
2022/09/21 09:19:20;;;;;;;7.30;3.33;;;;;;;14.29;67.82;101962.44;5059505;28;20224;-82
2022/09/21 09:21:47;;;;;;;6.80;3.07;;;;;;;14.36;67.91;101962.94;5062554;28;20222;-83
2022/09/21 09:24:31;;;;;;;5.87;3.60;;;;;;;14.47;67.98;101966.75;5065782;28;20228;-82
2022/09/21 09:27:04;;;;;;;7.60;3.50;;;;;;;14.59;67.38;101967.84;5058979;28;20193;-82
2022/09/21 09:29:38;;;;;;;5.67;3.60;;;;;;;14.67;66.91;101975.44;5059525;28;20197;-82
2022/09/21 09:32:11;;;;;;;7.97;3.50;;;;;;;14.74;66.70;101966.94;5062658;28;20768;-83
2022/09/21 09:34:42;;;;;;;5.87;2.80;;;;;;;14.83;66.46;101974.44;5065412;28;20197;-83
2022/09/21 09:37:11;;;;;;;6.17;2.97;;;;;;;14.90;66.16;101970.41;5066476;28;20250;-82
2022/09/21 09:39:41;;;;;;;8.57;3.20;;;;;;;15.02;65.89;101976.00;5061343;28;20201;-82
2022/09/21 09:42:32;;;;;;;7.50;3.80;;;;;;;15.17;66.11;101970.56;5061634;28;20312;-82
2022/09/21 09:45:38;;;;;;;6.60;2.47;;;;;;;15.33;65.53;101966.91;5064552;28;20203;-83
2022/09/21 09:48:19;;;;;;;12.67;3.90;;;;;;;15.42;63.82;101966.31;5059434;28;20206;-82
2022/09/21 09:50:46;;;;;;;4.43;2.23;;;;;;;15.49;62.92;101973.91;5063438;28;20217;-83
2022/09/21 09:53:16;;;;;;;6.60;1.90;;;;;;;15.55;62.06;101967.31;5057999;28;20575;-83
2022/09/21 09:55:47;;;;;;;7.77;3.23;;;;;;;15.60;62.17;101962.50;5069275;28;20217;-83
2022/09/21 09:58:18;;;;;;;6.50;2.93;;;;;;;15.72;62.31;101966.25;5065813;28;20305;-83
2022/09/21 10:00:47;;;;;;;7.20;2.27;;;;;;;15.83;61.63;101972.66;5067210;28;20222;-83
2022/09/21 10:03:18;;;;;;;5.87;2.47;;;;;;;15.95;61.27;101976.38;5069229;28;20363;-83
2022/09/21 10:05:45;;;;;;;5.93;2.03;;;;;;;16.06;60.43;101968.50;5073519;28;20207;-84
2022/09/21 10:08:41;;;;;;;7.97;2.63;;;;;;;16.19;60.05;101963.16;5062477;28;20215;-83
2022/09/21 10:11:10;;;;;;;6.67;2.73;;;;;;;16.28;59.33;101963.44;5068863;28;20192;-83
2022/09/21 10:13:38;;;;;;;5.77;2.10;;;;;;;16.39;59.29;101968.09;5077584;28;20225;-82
2022/09/21 10:16:11;;;;;;;4.90;1.90;;;;;;;16.49;58.33;101958.41;5074200;28;20214;-83
2022/09/21 10:18:41;;;;;;;6.73;2.00;;;;;;;16.58;57.65;101960.50;5065908;28;20602;-83
2022/09/21 10:21:09;;;;;;;7.77;1.73;;;;;;;16.63;56.90;101947.66;5066557;28;20203;-83
2022/09/21 10:23:37;;;;;;;5.23;1.60;;;;;;;16.70;56.51;101947.19;5060756;28;20228;-82
2022/09/21 10:26:08;;;;;;;4.70;1.73;;;;;;;16.76;56.09;101952.19;5062431;28;20213;-84
2022/09/21 10:28:37;;;;;;;6.53;1.60;;;;;;;16.82;55.80;101949.06;5063453;28;20586;-84
2022/09/21 10:31:17;;;;;;;7.60;1.70;;;;;;;16.90;55.75;101949.38;5069014;28;20216;-83
2022/09/21 10:33:49;;;;;;;4.53;1.60;;;;;;;16.99;55.16;101940.69;5069067;28;20222;-84
2022/09/21 10:36:31;;;;;;;5.80;0.93;;;;;;;17.03;54.30;101942.19;5068897;28;20229;-83
2022/09/21 10:39:20;;;;;;;2.97;0.83;;;;;;;17.02;52.79;101940.44;5069438;28;20208;-83
2022/09/21 10:41:53;;;;;;;3.97;1.07;;;;;;;17.03;51.96;101942.19;5066543;28;20583;-84
2022/09/21 10:44:23;;;;;;;4.93;1.60;;;;;;;17.06;51.81;101941.97;5066633;28;20225;-83
2022/09/21 10:46:51;;;;;;;5.67;1.10;;;;;;;17.12;51.65;101938.84;5068099;28;20211;-83
2022/09/21 10:49:22;;;;;;;3.10;1.00;;;;;;;17.18;51.03;101934.88;5065307;28;20207;-83
2022/09/21 10:51:50;;;;;;;2.23;0.97;;;;;;;17.19;50.71;101940.16;5069288;28;20197;-84
2022/09/21 10:54:22;;;;;;;4.23;1.40;;;;;;;17.24;50.58;101934.44;5064992;28;20249;-84
2022/09/21 10:56:54;;;;;;;2.80;0.97;;;;;;;17.29;50.08;101941.22;5069154;28;20198;-84
2022/09/21 10:59:26;;;;;;;2.13;0.90;;;;;;;17.31;48.99;101939.28;5066579;28;20320;-83
2022/09/21 11:01:54;;;;;;;3.97;1.10;;;;;;;17.33;47.98;101940.03;5067681;28;20201;-83
2022/09/21 11:04:30;;;;;;;2.93;0.87;;;;;;;17.39;48.43;101935.16;5065587;28;20579;-84
2022/09/21 11:07:04;;;;;;;5.17;1.00;;;;;;;17.47;48.80;101928.25;5061920;28;20203;-82
2022/09/21 11:09:37;;;;;;;3.50;1.50;;;;;;;17.54;49.27;101917.91;5062945;28;20746;-84
2022/09/21 11:12:17;;;;;;;3.53;1.07;;;;;;;17.63;49.43;101922.63;5060904;28;20890;-83
2022/09/21 11:14:51;;;;;;;4.80;1.07;;;;;;;17.66;47.99;101923.31;5064637;28;20584;-84
2022/09/21 11:17:27;;;;;;;4.37;1.10;;;;;;;17.62;47.35;101920.91;5063048;28;20628;-84
2022/09/21 11:20:03;;;;;;;1.67;0.70;;;;;;;17.60;46.35;101933.63;5065670;28;20214;-84
2022/09/21 11:22:35;;;;;;;4.73;1.03;;;;;;;17.55;46.38;101922.34;5070899;28;20264;-83
2022/09/21 11:25:23;;;;;;;3.60;0.90;;;;;;;17.56;46.74;101924.03;5064623;28;20205;-84
2022/09/21 11:27:56;;;;;;;3.50;0.93;;;;;;;17.63;47.43;101925.31;5066415;28;20289;-83
2022/09/21 11:30:24;;;;;;;2.33;1.00;;;;;;;17.69;47.46;101923.09;5064463;28;20206;-83
2022/09/21 11:33:04;;;;;;;4.70;1.40;;;;;;;17.76;47.99;101922.63;5069402;28;20241;-83
2022/09/21 11:35:43;;;;;;;3.93;0.90;;;;;;;17.83;47.78;101927.44;5059756;28;20202;-83
2022/09/21 11:38:13;;;;;;;1.90;0.80;;;;;;;17.85;47.38;101927.34;5073195;28;20205;-82
2022/09/21 11:41:03;;;;;;;2.57;0.90;;;;;;;17.86;47.07;101924.53;5068447;28;20207;-84
2022/09/21 11:43:45;;;;;;;4.63;0.93;;;;;;;17.87;46.27;101918.19;5063810;28;20235;-83
2022/09/21 11:46:24;;;;;;;1.70;0.63;;;;;;;17.88;45.88;101919.03;5060600;28;20202;-83
2022/09/21 11:49:12;;;;;;;2.13;0.70;;;;;;;17.88;45.81;101917.19;5061557;28;20199;-83
2022/09/21 11:51:54;;;;;;;4.23;0.93;;;;;;;17.86;45.39;101919.16;5056453;28;20206;-83